Timeline UpdatesTrip UpdatesNews PostsPvt Posts♥♥Travel TipsAdmin PostsConv PostsFollowed PostsChat RequestsBlog PostsPNR Posts

Disclaimer
Search
 
 
Sat Nov 22, 2014 15:53:38 ISTHomeTrainsΣChainsAtlasPNRForumGalleryNewsFAQTripsMembersLoginFeedback
No Recent News for this Train
Other Trains in the News **new
Latest...
.
Sat Feb 02, 2013 (04:11PM)
⇐ Return Journey: Train# 51188

51187/Bhusaval Katni Passenger (UnReserved)

Time-Table HAS CHANGED.
Sep 30 2014 (9:25PM)
Change Departure Station:
Change Arrival Station:
Post a Train Travel TipPost a Train Travel Tip **new
Post a Comment/Question/Picture/VideoPost a Comment/Question/Picture/Video
Pantry/Catering
✕ NO Pantry Car
✕ NO Catering
RSA - Rake Sharing
Rake/Coach Composition
Loco
BSL-ET: BSL/ET WAP-4 ET-KTE: ET/KTE WDM-3A
News    PNR    Forum    Time-Table    Availability    Fare Chart    Map    Arr/Dep History    Trips    Gallery    ΣChains    X/O    Timeline    
Travel Time: 11h 37m    39 halts    Distance: 384 km    Avg Speed: 33 km/hr
Type: Passenger
Zone: CR/Central
Departs @ 15:48 (Avg 54m late)
Platform# ???
SMTWTFS
Pagdhal/PGL 
Arrives @ 03:25 +1 night (Avg 3h 1m late)
Platform# ???
SMTWTFS
Katni Junction/KTE 

39 halts. 45 intermediate Stations between Pagdhal and Katni Junction

Show ALL intermediate Stations  Show Old Time-Table

#TrkCodeStation NameX/OArrivesAvgDepartsAvgHaltPFDay#KmSpeedElevZoneAddress
1/==/BSLBhusaval Junction (8)  -09:30+11--1-258.737208mCRBhusaval 425201, Maharashtra
2/==/DSKDuskheda (2)X  09:41+3309:42+341m--1-252.047213mCRDuskheda Station, Maharashtra
3/==/SAVSavda (2)X  09:53+3109:54+311m--1-243.348220mCRSavda, Maharashtra
4/==/NBNimbhora (2)  10:05+3110:06+321m--1-234.655229mCRJalgaon, Maharashtra
5/==/RVRaver (2)  10:17+3210:18+341m--1-224.454242mCRJalgaon, Maharashtra
6/==/WGAWaghodaX  10:29+3410:30+351m--1-214.544259mCRChorwad, Maharashtra
7/==/BAUBurhanpur (2)X  10:44+2210:45+251m21-204.260269mCRBurhanpur, Madhya Pradesh
8/==/AGQAsirgarh Road (2)  10:54+3710:55+391m--1-195.368259mCRState Highway 27, Madhya Pradesh
9/==/CDIChandni (2)X  11:04+3911:05+391m--1-185.147276mCRNepanagar Rd, Madhya Pradesh
10/==/NPNRNepanagar (2)  11:14+4111:15+441m--1-178.050289mCRState Highway 27, Madhya Pradesh
11/==/MWAMandwa (2)X  11:22+4611:23+461m--1-172.260317mCRState Highway 27, Madhya Pradesh
12/==/SXASagphata (2)  11:29+4811:30+491m--1-166.266350mCRKhandwa, Madhya Pradesh
13/==/DGNDongargaon (2)X  11:37+5011:38+521m21-158.591373mCRBorgaon, Madhya Pradesh
14/==/KDKKohdad (2)X  11:43+5511:44+551m--1-150.953344mCRState Highway 15, Madhya Pradesh
15/==/BMABagmar (2)X  11:49+5811:50+1:021m--1-146.590335mCRState Highway 27, Madhya Pradesh
16/==/BRGJBargaon Gujar (2)  11:54+1:0511:55+1:051m--1-140.57316mCRKhandwa, Madhya Pradesh
17/==/KNWKhandwa Junction (5)X  12:50 12:40+2312:55 12:45+275m--1-135.418310mCRKhandwa, Madhya Pradesh
18/==/MTAMathela (2)  13:05 13:09+3813:06 13:11+381 2m--1-128.063322mWCRKhandwa, Madhya Pradesh
19/==/TLVTalvadiya (2)  13:15 13:19+3813:16 13:21+391 2m--1-119.679308mWCRKhandwa, Madhya Pradesh
20/==/SGBJSurgaon Banjari (2)  13:26 13:30+3913:27 13:32+391 2m--1-107.983298mWCRKhandwa, Madhya Pradesh
21/==/CKKDCharkheda Khurd (2)  13:36 13:40+4113:37 13:42+411 2m--1-96.758274mWCRKhandwa, Madhya Pradesh
22/==/CAERChhanera (2)X  13:45 13:49+4213:46 13:51+441 2m--1-89.968283mWCRChhanera, Madhya Pradesh
23/==/BRUDBarud (2)X  13:56 14:00+4413:57 14:02+441 2m--1-79.864273mWCRKhandwa, Madhya Pradesh
24/==/DRHIDagarhkeri (2)X  14:07 14:11+4414:08 14:13+441 2m--1-70.273274mWCRState Highway 15, Madhya Pradesh
25/==/KKNKhirkiya (2)X  14:18 14:22+4214:19 14:24+441 2m21-59.348281mWCRSH 15, Madhya Pradesh
26/==/KROKurawan (2)  14:27 14:32-14:29 14:34-2m--1-52.944297mWCRSH 15, Madhya Pradesh
27/==/BRIBhiringi (2)X  14:39 14:43+4414:40 14:45+441 2m--1-46.252294mWCRSH 15, Madhya Pradesh
28/==/MUOMasangaon (2)  14:47 14:51+4314:48 14:53+431 2m--1-41.159303mWCRSH 15, Madhya Pradesh
29/==/PALPalasner (2)  14:55 14:59+4314:56 15:01+431 2m--1-35.149296mWCRHarda, Madhya Pradesh
30/==/HDHarda (3)X  15:06 15:10+3915:07 15:12+421 2m--1-27.760289mWCRHarda, Madhya Pradesh
31/==/CRKCharkhera (2)  15:15 15:19+4615:16 15:21+491 2m--1-20.761298mWCRBarkalan, Madhya Pradesh
32/==/TBNTimarni (2)X  15:24 15:28+4515:25 15:30+491 2m--1-13.671308mWCRTimarni, Madhya Pradesh
33/==/CGOChhidgaon (2)  15:33 15:38-15:35 15:40-2m--1-4.141309mWCRHarda, Madhya Pradesh
34/==/PGLPagdhal (2)»X  15:42 15:46+5115:43 15:48+541 2m--10.063317mWCRPagdhal, Madhya Pradesh
35/==/BIFBhaironpur (2)X  15:51 15:55+5415:52 15:57+541 2m--17.363322mWCRSH 15, Madhya Pradesh
36/==/BPFBanapura (2)  16:00 16:04+3416:01 16:06+411 2m--114.662314mWCRBanapura, Madhya Pradesh
37/==/DKIDharamkundi (2)X  16:10 16:14+4116:11 16:16+411 2m--122.863314mWCRSH 15, Madhya Pradesh
38/==/KTZKhutwansa (2)  16:19 16:23-16:20 16:25-1 2m--130.242325mWCRSH 15, Madhya Pradesh
39/==/DRADularia (2)O  16:29 16:33+3816:30 16:35+451 2m--135.813318mWCRItarsi, Madhya Pradesh
40/==/ETItarsi Junction (7)XO  17:30+2317:50+2420m--148.163329mWCRItarsi 461111, Madhya Pradesh
41|==|GROGurra (2)  18:00+1:2918:02+1:312m--158.660327mWCRItarsi, Madhya Pradesh
42|=-|SQLSontalai (2)  18:11+1:3118:13+1:462m--167.646329mWCRItarsi, Madhya Pradesh
43|-=|BGTABagratawa (2)X  18:22+1:4818:24+1:592m--174.571338mWCRBagra Tawa, Madhya Pradesh
44|==|GMDGuramkhedi (2)  18:35+1:5918:37+2:002m--187.560337mWCRGuramkhedi, Madhya Pradesh
45|==|SGPSohagpur (2)X  18:47+2:0018:49+2:022m--197.660340mWCRSohagpur, Madhya Pradesh
46|==|SXFSobhapur (2)  18:58-19:00-2m--1106.640338mWCRState Highway 22, Madhya Pradesh
47|==|PPIPipariya (3)X  19:08 19:13+1:0619:09 19:15+1:111 2m31115.365338mWCRPiparia, Madhya Pradesh
48|==|BKHBankhedi (2)  19:24 19:33+2:1519:25 19:35+2:191 2m--1134.771351mWCRBankheri, Madhya Pradesh
49|==|JHTJunehta (2)X  19:33 19:40-19:34 19:42-1 2m--1140.676353mWCRState Highway 22, Madhya Pradesh
50|==|SCKRSalichauka Road (2)X  19:44 19:50+2:2119:45 19:52+2:341 2m--1150.883355mWCRGadarwara, Madhya Pradesh
51|==|GARGadarwara (2)  19:57 20:02+2:3619:58 20:04+2:441 2m11164.7111352mWCRNarsinghpur, Madhya Pradesh
52|==|BNEBohani (2)  20:10 20:11+2:5020:11 20:13+3:111 2m21177.670361mWCRNarsinghpur, Madhya Pradesh
53|==|KFYKarapgaon (2)O  20:20 20:19-20:21-1 2m--1184.643363mWCRNational Highway 26, Madhya Pradesh
54|==|KYKareli (2)X  20:34 20:33+1:5320:35+1:591 2m11193.241361mWCRKareli, Madhya Pradesh
55|==|NUNarsinghpur (2)  20:58+2:1121:00+2:182m11209.058365mWCRNarsimhapur, Madhya Pradesh
56|==!GPCGhatpindrai (2)  21:07 21:06+3:2421:08+3:321 2m--1214.841366mWCRGhatpindra, Madhya Pradesh
57!==|BELDBelkhera (2)  21:17 21:16+3:3121:18+3:331 2m--1220.333367mWCRState Highway 22, Madhya Pradesh
58!==|KKBKarak Bel (2)XO  21:26+3:3021:28+3:372m11224.712375mWCRKarak Bel, Madhya Pradesh
59|==|SRIDShridham (3)  22:38 22:43+1:1622:40 22:45+1:182m21240.288373mWCRShridham, Madhya Pradesh
60|==|BMRBikrampur (2)  22:53+2:4422:54 22:55+2:451 2m--1251.987353mWCRBikrampur Dist Narsingpur., Madhya Pradesh
61|==|BHTNBhitoni (2)  23:06 23:03+4:1223:07 23:05+4:171 2m--1263.561377mWCRJabalpur, Madhya Pradesh
62|==|BRGTBheraghat (2)X  23:19 23:18+4:1523:20+4:221 2m--1276.616389mWCRBheraghat, Madhya Pradesh
63|==|MMLMadan Mahal (3)  00:03 00:08+2:0000:05 00:10+2:012m32289.78428mWCRJabalpur, Madhya Pradesh
64|==|JBPJabalpur Junction (4)X  00:40 00:35+1:5500:50 00:45+1:5910m22293.031416mWCRJabalpur, Madhya Pradesh
65|==|ADTLAdhartal (2)X  01:01+2:2401:03+2:272m--2301.259393mWCRJabalpur, Madhya Pradesh
66|==|DOEDeori (2)  01:12+2:1801:14+2:182m--2310.063392mWCRJabalpur, Madhya Pradesh
67|==|GSPRGosalpur (2)X  01:24+2:2601:26+2:262m--2320.574396mWCRJabalpur, Madhya Pradesh
68|==|SHRSihora Road (2)X  01:35+2:0601:37+2:122m--2331.675388mWCRJabalpur, Madhya Pradesh
69|==|DDCEDundi (2)O  01:49+2:3401:51+2:342m--2346.663415mWCRDundi, Madhya Pradesh
70|==|SBDSleemanabad Road (2)XO  01:59 02:00+2:2002:01+2:202 1m--2356.141434mWCRSleemanabad, Madhya Pradesh
71|==|SNRRSansarpur (2)X  02:11-02:13-2m--2363.019436mWCRNational Highway 7, Madhya Pradesh
72|==|NWRNiwar (2)X  02:39 02:38+2:1502:40+2:151 2m--2370.768412mWCRPipraundh, Madhya Pradesh
73|==|MDRRMadhavnagar Road (2)X  02:47-02:49-2m--2378.69398mWCRMadhavnagar, Madhya Pradesh
74%==|KTEKatni Junction (6)•  03:25+3:01---2383.9-387mWCRKatni, Madhya Pradesh
Scroll to Top
Scroll to Bottom